createdAt,value
2022-09-02T00:01:34.101Z,78.42
2022-09-02T00:06:37.904Z,79.13
2022-09-02T00:11:42.697Z,79.36
2022-09-02T00:16:50.783Z,79.52
2022-09-02T00:21:55.958Z,79.39
2022-09-02T00:26:59.190Z,79.29
2022-09-02T00:32:03.176Z,79.23
2022-09-02T00:37:06.418Z,79.19
2022-09-02T00:42:12.274Z,79.41
2022-09-02T00:47:15.606Z,79.72
2022-09-02T00:52:23.550Z,79.91
2022-09-02T00:57:31.711Z,79.87
2022-09-02T01:02:37.453Z,80.08
2022-09-02T01:07:42.539Z,80.22
2022-09-02T01:12:46.838Z,80.07
2022-09-02T01:17:52.740Z,80.23
2022-09-02T01:22:57.722Z,80.29
2022-09-02T01:28:05.929Z,80.45
2022-09-02T01:33:10.096Z,80.61
2022-09-02T01:38:13.690Z,80.76
2022-09-02T01:43:20.164Z,80.76
2022-09-02T01:48:25.294Z,81.22
2022-09-02T01:53:30.427Z,81.19
2022-09-02T01:58:33.878Z,81.00
2022-09-02T02:03:37.999Z,80.92
2022-09-02T02:08:42.557Z,81.15
2022-09-02T02:13:46.078Z,81.36
2022-09-02T02:18:50.028Z,81.25
2022-09-02T02:23:53.835Z,81.43
2022-09-02T02:28:57.128Z,81.71
2022-09-02T02:34:02.583Z,81.50
2022-09-02T02:39:09.679Z,81.70
2022-09-02T02:44:13.477Z,81.78
2022-09-02T02:49:17.016Z,81.89
2022-09-02T02:54:21.248Z,82.30
2022-09-02T02:59:25.703Z,82.40
2022-09-02T03:04:29.648Z,82.60
2022-09-02T03:09:33.751Z,82.90
2022-09-02T03:14:36.901Z,82.65
2022-09-02T03:19:46.609Z,82.39
2022-09-02T03:24:50.396Z,82.50
2022-09-02T03:29:53.770Z,82.74
2022-09-02T03:34:57.248Z,82.64
2022-09-02T03:40:02.152Z,82.53
2022-09-02T03:45:14.197Z,82.50
2022-09-02T03:50:19.501Z,82.64
2022-09-02T03:55:24.147Z,82.67
2022-09-02T04:00:32.924Z,82.58
2022-09-02T04:05:39.345Z,82.55
2022-09-02T04:10:42.779Z,82.86
2022-09-02T04:15:48.651Z,83.02
2022-09-02T04:20:52.808Z,82.83
2022-09-02T04:25:58.040Z,82.82
2022-09-02T04:31:05.456Z,83.10
2022-09-02T04:36:15.404Z,82.71
2022-09-02T04:47:32.627Z,73.20
2022-09-02T04:52:46.121Z,72.87
2022-09-02T04:57:50.407Z,70.57
2022-09-02T05:02:55.115Z,66.63
2022-09-02T05:07:58.801Z,66.51
2022-09-02T05:13:02.639Z,67.18
2022-09-02T05:18:06.284Z,67.40
2022-09-02T05:23:10.865Z,67.98
2022-09-02T05:28:17.349Z,68.26
2022-09-02T05:33:22.298Z,64.10
2022-09-02T05:38:25.777Z,56.46
2022-09-02T05:43:29.465Z,49.08
2022-09-02T05:48:53.034Z,44.04
2022-09-02T05:53:58.135Z,39.45
2022-09-02T05:59:01.951Z,35.95
2022-09-02T06:04:06.508Z,33.21
2022-09-02T06:09:13.063Z,31.16
2022-09-02T06:14:20.247Z,29.48
2022-09-02T06:19:25.263Z,28.19
2022-09-02T06:24:33.147Z,26.80
2022-09-02T06:29:42.110Z,25.11
2022-09-02T06:34:45.842Z,24.32
2022-09-02T06:39:49.103Z,23.91
2022-09-02T06:44:58.094Z,23.67
2022-09-02T06:50:02.249Z,21.67
2022-09-02T06:55:08.378Z,22.35
2022-09-02T07:00:13.447Z,21.76
2022-09-02T07:05:17.880Z,21.41
2022-09-02T07:10:22.852Z,20.61
2022-09-02T07:15:28.301Z,20.75
2022-09-02T07:20:32.309Z,19.86
2022-09-02T07:25:41.004Z,19.11
2022-09-02T07:30:44.754Z,19.33
2022-09-02T07:35:52.531Z,18.75
2022-09-02T07:40:57.117Z,18.57
2022-09-02T07:46:02.557Z,18.24
2022-09-02T07:51:07.467Z,17.81
2022-09-02T07:56:13.114Z,17.13
2022-09-02T08:01:19.998Z,17.24
2022-09-02T08:06:34.690Z,17.30
2022-09-02T08:11:39.186Z,17.12
2022-09-02T08:16:43.321Z,16.84
2022-09-02T08:21:46.525Z,16.62
2022-09-02T08:26:50.091Z,16.17
2022-09-02T08:31:54.167Z,16.17
2022-09-02T08:36:58.227Z,16.06
2022-09-02T08:42:08.278Z,15.81
2022-09-02T08:47:16.247Z,15.64
2022-09-02T08:52:27.846Z,16.59
2022-09-02T08:57:31.996Z,15.50
2022-09-02T09:02:49.322Z,15.66
2022-09-02T09:08:01.874Z,15.80
2022-09-02T09:13:20.003Z,15.86
2022-09-02T09:18:30.483Z,16.31
2022-09-02T09:23:36.136Z,16.65
2022-09-02T09:28:42.845Z,16.26
2022-09-02T09:34:00.368Z,16.00
2022-09-02T09:39:16.110Z,17.13
2022-09-02T09:44:41.524Z,17.43
2022-09-02T09:49:45.057Z,16.16
2022-09-02T09:55:04.304Z,17.10
2022-09-02T10:00:25.662Z,16.75
2022-09-02T10:05:33.422Z,16.97
2022-09-02T10:10:36.669Z,16.65
2022-09-02T10:15:47.990Z,17.41
2022-09-02T10:21:16.237Z,17.05
2022-09-02T10:26:33.162Z,17.40
2022-09-02T10:31:46.474Z,17.78
2022-09-02T10:37:08.246Z,18.05
2022-09-02T10:42:20.061Z,20.07
2022-09-02T10:47:32.093Z,19.03
2022-09-02T10:52:50.190Z,19.21
2022-09-02T10:58:00.014Z,18.92
2022-09-02T11:03:12.233Z,18.85
2022-09-02T11:08:27.268Z,19.06
2022-09-02T11:13:44.533Z,19.22
2022-09-02T11:18:58.165Z,19.12
2022-09-02T11:24:06.231Z,18.91
2022-09-02T11:29:17.761Z,19.67
2022-09-02T11:34:34.704Z,19.64
2022-09-02T11:40:11.575Z,20.66
2022-09-02T11:45:20.288Z,21.22
2022-09-02T11:50:39.486Z,22.18
2022-09-02T11:55:48.481Z,21.71
2022-09-02T12:01:24.375Z,22.49
2022-09-02T12:06:32.821Z,23.83
2022-09-02T12:11:46.484Z,23.04
2022-09-02T12:17:04.180Z,23.40
2022-09-02T12:22:33.004Z,23.45
2022-09-02T12:27:36.859Z,24.70
2022-09-02T12:33:08.774Z,24.70
2022-09-02T12:38:30.350Z,25.41
2022-09-02T12:43:47.370Z,25.80
2022-09-02T12:49:00.944Z,24.97
2022-09-02T12:54:06.078Z,24.90
2022-09-02T12:59:10.176Z,24.90
2022-09-02T13:04:30.151Z,25.46
2022-09-02T13:09:52.176Z,26.12
2022-09-02T13:15:04.675Z,27.12
2022-09-02T13:20:41.237Z,27.84
2022-09-02T13:26:19.137Z,28.56
2022-09-02T13:31:35.535Z,29.53
2022-09-02T13:36:42.949Z,29.78
2022-09-02T13:41:47.192Z,28.48
2022-09-02T13:46:52.212Z,28.33
2022-09-02T13:51:56.783Z,28.04
2022-09-02T13:57:03.467Z,27.56
2022-09-02T14:02:25.897Z,27.31
2022-09-02T14:07:36.436Z,28.07
2022-09-02T14:12:41.274Z,27.83
2022-09-02T14:17:44.461Z,27.69
2022-09-02T14:22:54.380Z,27.24
2022-09-02T14:28:00.108Z,27.51
2022-09-02T14:33:25.122Z,28.10
2022-09-02T14:38:32.904Z,28.86
2022-09-02T14:43:44.139Z,30.00
2022-09-02T14:48:55.662Z,30.69
2022-09-02T14:53:58.835Z,30.89
2022-09-02T14:59:02.158Z,31.43
2022-09-02T15:04:06.107Z,31.91
2022-09-02T15:09:09.634Z,31.99
2022-09-02T15:14:12.644Z,31.33
2022-09-02T15:19:16.006Z,31.40
2022-09-02T15:24:20.412Z,31.51
2022-09-02T15:29:28.821Z,31.98
2022-09-02T15:34:36.487Z,31.59
2022-09-02T15:39:40.315Z,31.75
2022-09-02T15:44:43.859Z,31.19
2022-09-02T15:49:46.961Z,31.54
2022-09-02T15:54:50.052Z,31.65
2022-09-02T15:59:53.438Z,31.88
2022-09-02T16:04:56.665Z,32.13
2022-09-02T16:10:03.479Z,32.63
2022-09-02T16:15:09.030Z,33.35
2022-09-02T16:20:12.818Z,33.73
2022-09-02T16:25:16.114Z,34.29
2022-09-02T16:30:20.664Z,34.29
2022-09-02T16:35:24.101Z,34.53
2022-09-02T16:40:27.737Z,35.31
2022-09-02T16:45:31.348Z,37.15
2022-09-02T16:50:34.595Z,37.91
2022-09-02T16:55:41.827Z,37.51
2022-09-02T17:00:45.446Z,38.53
2022-09-02T17:05:48.593Z,38.66
2022-09-02T17:10:51.774Z,39.36
2022-09-02T17:15:54.946Z,40.18
2022-09-02T17:21:16.982Z,41.97
2022-09-02T17:26:22.302Z,43.78
2022-09-02T17:31:27.458Z,45.44
2022-09-02T17:36:32.205Z,46.54
2022-09-02T17:41:54.506Z,47.65
2022-09-02T17:46:57.972Z,48.65
2022-09-02T17:52:01.951Z,49.14
2022-09-02T17:57:19.666Z,50.54
2022-09-02T18:02:37.409Z,51.98
2022-09-02T18:07:48.763Z,53.34
2022-09-02T18:12:56.144Z,54.92
2022-09-02T18:18:02.441Z,56.38
2022-09-02T18:23:30.576Z,57.86
2022-09-02T18:28:45.633Z,58.79
2022-09-02T18:34:07.471Z,60.06
2022-09-02T18:39:27.259Z,60.65
2022-09-02T18:44:39.145Z,61.14
2022-09-02T18:49:44.760Z,61.68
2022-09-02T18:54:53.733Z,62.35
2022-09-02T19:00:04.113Z,62.74
2022-09-02T19:05:11.238Z,63.12
2022-09-02T19:10:14.675Z,63.55
2022-09-02T19:15:18.553Z,64.07
2022-09-02T19:20:23.114Z,64.76
2022-09-02T19:25:30.363Z,65.11
2022-09-02T19:30:35.726Z,65.48
2022-09-02T19:35:45.761Z,65.69
2022-09-02T19:40:49.907Z,66.18
2022-09-02T19:45:55.613Z,66.59
2022-09-02T19:50:58.849Z,64.71
2022-09-02T19:56:02.962Z,63.24
2022-09-02T20:01:07.160Z,62.47
2022-09-02T20:06:12.824Z,61.71
2022-09-02T20:11:17.271Z,61.34
2022-09-02T20:16:23.358Z,60.94
2022-09-02T20:21:29.968Z,60.74
2022-09-02T20:26:49.428Z,60.36
2022-09-02T20:32:04.035Z,60.17
2022-09-02T20:37:19.332Z,60.00
2022-09-02T20:42:40.417Z,59.92
2022-09-02T20:47:54.880Z,60.06
2022-09-02T20:53:16.068Z,60.10
2022-09-02T20:58:31.157Z,60.44
2022-09-02T21:03:49.569Z,61.15
2022-09-02T21:09:01.380Z,62.83
2022-09-02T21:14:13.023Z,63.95
2022-09-02T21:19:29.886Z,64.73
2022-09-02T21:24:39.421Z,65.20
2022-09-02T21:29:50.883Z,66.05
2022-09-02T21:34:57.869Z,66.36
2022-09-02T21:40:06.728Z,67.02
2022-09-02T21:45:22.668Z,67.53
2022-09-02T21:50:37.128Z,67.64
2022-09-02T21:55:53.712Z,68.33
2022-09-02T22:01:04.586Z,68.59
2022-09-02T22:06:16.441Z,68.87
2022-09-02T22:11:31.998Z,69.43
2022-09-02T22:16:48.098Z,69.71
2022-09-02T22:21:56.094Z,70.03
2022-09-02T22:27:05.835Z,70.43
2022-09-02T22:32:13.542Z,70.53
2022-09-02T22:37:23.800Z,70.60
2022-09-02T22:42:33.661Z,70.59
2022-09-02T22:48:18.725Z,70.67
2022-09-02T22:53:22.155Z,70.80
2022-09-02T22:59:15.241Z,70.94
2022-09-02T23:04:34.085Z,71.49
2022-09-02T23:10:27.002Z,71.32
2022-09-02T23:15:40.958Z,71.72
2022-09-02T23:20:52.942Z,71.62
2022-09-02T23:26:10.621Z,72.02
2022-09-02T23:31:31.184Z,72.15
2022-09-02T23:36:47.445Z,72.15
2022-09-02T23:41:56.866Z,72.76
2022-09-02T23:47:19.454Z,72.81
2022-09-02T23:52:34.597Z,73.22
2022-09-02T23:58:03.121Z,73.58
